sensor_id;sensor_type;location;lat;lon;timestamp;P1;durP1;ratioP1;P2;durP2;ratioP2
7338;SDS011;33747;49.524;8.390;2024-02-15T00:00:12;8.35;;;3.65;;
7338;SDS011;33747;49.524;8.390;2024-02-15T00:02:40;3.50;;;2.78;;
7338;SDS011;33747;49.524;8.390;2024-02-15T00:05:08;5.40;;;2.88;;
7338;SDS011;33747;49.524;8.390;2024-02-15T00:07:33;6.88;;;3.28;;
7338;SDS011;33747;49.524;8.390;2024-02-15T00:10:00;4.30;;;3.10;;
7338;SDS011;33747;49.524;8.390;2024-02-15T00:12:25;6.03;;;3.10;;
7338;SDS011;33747;49.524;8.390;2024-02-15T00:14:52;4.53;;;3.20;;
7338;SDS011;33747;49.524;8.390;2024-02-15T00:17:19;6.65;;;3.65;;
7338;SDS011;33747;49.524;8.390;2024-02-15T00:19:45;3.55;;;2.97;;
7338;SDS011;33747;49.524;8.390;2024-02-15T00:22:13;6.47;;;3.00;;
7338;SDS011;33747;49.524;8.390;2024-02-15T00:24:38;4.22;;;3.15;;
7338;SDS011;33747;49.524;8.390;2024-02-15T00:27:04;4.40;;;2.95;;
7338;SDS011;33747;49.524;8.390;2024-02-15T00:29:29;6.68;;;3.30;;
7338;SDS011;33747;49.524;8.390;2024-02-15T00:31:56;5.93;;;3.35;;
7338;SDS011;33747;49.524;8.390;2024-02-15T00:34:23;4.28;;;2.42;;
7338;SDS011;33747;49.524;8.390;2024-02-15T00:36:52;12.60;;;3.33;;
7338;SDS011;33747;49.524;8.390;2024-02-15T00:39:17;7.28;;;3.67;;
7338;SDS011;33747;49.524;8.390;2024-02-15T00:41:43;5.63;;;3.10;;
7338;SDS011;33747;49.524;8.390;2024-02-15T00:44:10;5.57;;;3.20;;
7338;SDS011;33747;49.524;8.390;2024-02-15T00:46:36;6.50;;;3.15;;
7338;SDS011;33747;49.524;8.390;2024-02-15T00:49:01;5.55;;;2.95;;
7338;SDS011;33747;49.524;8.390;2024-02-15T00:51:27;4.55;;;2.70;;
7338;SDS011;33747;49.524;8.390;2024-02-15T00:53:52;5.38;;;2.75;;
7338;SDS011;33747;49.524;8.390;2024-02-15T00:56:20;4.97;;;2.83;;
7338;SDS011;33747;49.524;8.390;2024-02-15T00:58:48;8.05;;;3.17;;
7338;SDS011;33747;49.524;8.390;2024-02-15T01:01:13;4.22;;;2.83;;
7338;SDS011;33747;49.524;8.390;2024-02-15T01:03:40;3.70;;;2.50;;
7338;SDS011;33747;49.524;8.390;2024-02-15T01:06:06;8.23;;;2.67;;
7338;SDS011;33747;49.524;8.390;2024-02-15T01:08:32;4.20;;;3.15;;
7338;SDS011;33747;49.524;8.390;2024-02-15T01:10:58;4.03;;;2.88;;
7338;SDS011;33747;49.524;8.390;2024-02-15T01:13:23;4.45;;;2.42;;
7338;SDS011;33747;49.524;8.390;2024-02-15T01:15:50;4.85;;;2.88;;
7338;SDS011;33747;49.524;8.390;2024-02-15T01:18:16;2.63;;;2.40;;
7338;SDS011;33747;49.524;8.390;2024-02-15T01:20:42;6.60;;;2.90;;
7338;SDS011;33747;49.524;8.390;2024-02-15T01:23:07;4.20;;;2.60;;
7338;SDS011;33747;49.524;8.390;2024-02-15T01:25:33;5.97;;;2.60;;
7338;SDS011;33747;49.524;8.390;2024-02-15T01:27:58;6.95;;;3.35;;
7338;SDS011;33747;49.524;8.390;2024-02-15T01:30:25;4.43;;;2.80;;
7338;SDS011;33747;49.524;8.390;2024-02-15T01:32:50;5.50;;;2.75;;
7338;SDS011;33747;49.524;8.390;2024-02-15T01:35:16;5.18;;;2.90;;
7338;SDS011;33747;49.524;8.390;2024-02-15T01:37:41;5.82;;;2.67;;
7338;SDS011;33747;49.524;8.390;2024-02-15T01:40:08;5.80;;;3.22;;
7338;SDS011;33747;49.524;8.390;2024-02-15T01:42:37;7.40;;;2.83;;
7338;SDS011;33747;49.524;8.390;2024-02-15T01:45:03;7.90;;;3.20;;
7338;SDS011;33747;49.524;8.390;2024-02-15T01:47:29;7.72;;;3.00;;
7338;SDS011;33747;49.524;8.390;2024-02-15T01:49:54;4.07;;;2.85;;
7338;SDS011;33747;49.524;8.390;2024-02-15T01:52:20;5.03;;;3.15;;
7338;SDS011;33747;49.524;8.390;2024-02-15T01:54:45;2.40;;;2.17;;
7338;SDS011;33747;49.524;8.390;2024-02-15T01:57:12;5.80;;;2.88;;
7338;SDS011;33747;49.524;8.390;2024-02-15T01:59:38;9.18;;;2.90;;
7338;SDS011;33747;49.524;8.390;2024-02-15T02:02:03;3.30;;;2.75;;
7338;SDS011;33747;49.524;8.390;2024-02-15T02:04:33;4.85;;;2.63;;
7338;SDS011;33747;49.524;8.390;2024-02-15T02:06:58;10.65;;;2.45;;
7338;SDS011;33747;49.524;8.390;2024-02-15T02:09:24;6.38;;;3.08;;
7338;SDS011;33747;49.524;8.390;2024-02-15T02:11:51;6.70;;;3.30;;
7338;SDS011;33747;49.524;8.390;2024-02-15T02:14:17;7.78;;;2.88;;
7338;SDS011;33747;49.524;8.390;2024-02-15T02:16:45;3.72;;;2.65;;
7338;SDS011;33747;49.524;8.390;2024-02-15T02:19:11;7.32;;;2.92;;
7338;SDS011;33747;49.524;8.390;2024-02-15T02:21:37;5.15;;;2.85;;
7338;SDS011;33747;49.524;8.390;2024-02-15T02:24:04;4.72;;;2.65;;
7338;SDS011;33747;49.524;8.390;2024-02-15T02:29:03;5.80;;;2.78;;
7338;SDS011;33747;49.524;8.390;2024-02-15T02:31:33;4.93;;;2.60;;
7338;SDS011;33747;49.524;8.390;2024-02-15T02:34:03;3.50;;;2.65;;
7338;SDS011;33747;49.524;8.390;2024-02-15T02:36:29;4.47;;;2.85;;
7338;SDS011;33747;49.524;8.390;2024-02-15T02:38:56;4.35;;;3.22;;
7338;SDS011;33747;49.524;8.390;2024-02-15T02:41:27;6.63;;;3.13;;
7338;SDS011;33747;49.524;8.390;2024-02-15T02:43:53;4.97;;;2.67;;
7338;SDS011;33747;49.524;8.390;2024-02-15T02:46:23;3.90;;;2.78;;
7338;SDS011;33747;49.524;8.390;2024-02-15T02:48:49;5.85;;;2.33;;
7338;SDS011;33747;49.524;8.390;2024-02-15T02:51:14;3.58;;;2.50;;
7338;SDS011;33747;49.524;8.390;2024-02-15T02:53:40;5.68;;;3.15;;
7338;SDS011;33747;49.524;8.390;2024-02-15T02:56:05;5.45;;;2.75;;
7338;SDS011;33747;49.524;8.390;2024-02-15T02:58:34;6.28;;;2.40;;
7338;SDS011;33747;49.524;8.390;2024-02-15T03:00:59;7.30;;;3.17;;
7338;SDS011;33747;49.524;8.390;2024-02-15T03:03:29;4.75;;;2.70;;
7338;SDS011;33747;49.524;8.390;2024-02-15T03:05:54;10.32;;;2.70;;
7338;SDS011;33747;49.524;8.390;2024-02-15T03:08:19;4.32;;;2.97;;
7338;SDS011;33747;49.524;8.390;2024-02-15T03:10:47;2.85;;;2.65;;
7338;SDS011;33747;49.524;8.390;2024-02-15T03:13:12;4.85;;;2.60;;
7338;SDS011;33747;49.524;8.390;2024-02-15T03:15:39;3.30;;;2.30;;
7338;SDS011;33747;49.524;8.390;2024-02-15T03:18:06;5.38;;;2.55;;
7338;SDS011;33747;49.524;8.390;2024-02-15T03:20:33;9.02;;;2.65;;
7338;SDS011;33747;49.524;8.390;2024-02-15T03:23:00;6.57;;;2.67;;
7338;SDS011;33747;49.524;8.390;2024-02-15T03:25:26;5.63;;;2.60;;
7338;SDS011;33747;49.524;8.390;2024-02-15T03:27:54;6.15;;;2.42;;
7338;SDS011;33747;49.524;8.390;2024-02-15T03:30:21;9.75;;;2.67;;
7338;SDS011;33747;49.524;8.390;2024-02-15T03:32:48;4.43;;;2.25;;
7338;SDS011;33747;49.524;8.390;2024-02-15T03:35:16;7.25;;;2.90;;
7338;SDS011;33747;49.524;8.390;2024-02-15T03:37:42;8.60;;;2.88;;
7338;SDS011;33747;49.524;8.390;2024-02-15T03:40:09;8.10;;;3.60;;
7338;SDS011;33747;49.524;8.390;2024-02-15T03:42:35;8.32;;;3.50;;
7338;SDS011;33747;49.524;8.390;2024-02-15T03:45:02;10.27;;;3.80;;
7338;SDS011;33747;49.524;8.390;2024-02-15T03:47:33;9.07;;;4.00;;
7338;SDS011;33747;49.524;8.390;2024-02-15T03:50:00;9.00;;;3.88;;
7338;SDS011;33747;49.524;8.390;2024-02-15T03:52:30;9.90;;;4.60;;
7338;SDS011;33747;49.524;8.390;2024-02-15T03:54:56;10.43;;;3.95;;
7338;SDS011;33747;49.524;8.390;2024-02-15T03:57:24;8.07;;;4.03;;
7338;SDS011;33747;49.524;8.390;2024-02-15T03:59:49;7.35;;;3.58;;
7338;SDS011;33747;49.524;8.390;2024-02-15T04:02:18;10.85;;;3.78;;
7338;SDS011;33747;49.524;8.390;2024-02-15T04:04:43;11.77;;;4.10;;
7338;SDS011;33747;49.524;8.390;2024-02-15T04:07:18;4.85;;;3.10;;
7338;SDS011;33747;49.524;8.390;2024-02-15T04:09:44;9.32;;;3.30;;
7338;SDS011;33747;49.524;8.390;2024-02-15T04:12:10;9.70;;;3.80;;
7338;SDS011;33747;49.524;8.390;2024-02-15T04:14:37;7.72;;;3.38;;
7338;SDS011;33747;49.524;8.390;2024-02-15T04:17:05;6.38;;;3.15;;
7338;SDS011;33747;49.524;8.390;2024-02-15T04:19:31;10.85;;;3.90;;
7338;SDS011;33747;49.524;8.390;2024-02-15T04:21:56;9.05;;;3.55;;
7338;SDS011;33747;49.524;8.390;2024-02-15T04:24:22;7.20;;;2.95;;
7338;SDS011;33747;49.524;8.390;2024-02-15T04:26:49;5.57;;;3.63;;
7338;SDS011;33747;49.524;8.390;2024-02-15T04:29:16;6.70;;;3.60;;
7338;SDS011;33747;49.524;8.390;2024-02-15T04:31:46;4.30;;;3.10;;
7338;SDS011;33747;49.524;8.390;2024-02-15T04:34:17;7.88;;;3.00;;
7338;SDS011;33747;49.524;8.390;2024-02-15T04:36:45;5.35;;;3.00;;
7338;SDS011;33747;49.524;8.390;2024-02-15T04:39:14;8.65;;;3.33;;
7338;SDS011;33747;49.524;8.390;2024-02-15T04:41:48;12.25;;;3.25;;
7338;SDS011;33747;49.524;8.390;2024-02-15T04:44:16;6.80;;;3.20;;
7338;SDS011;33747;49.524;8.390;2024-02-15T04:46:45;8.05;;;3.80;;
7338;SDS011;33747;49.524;8.390;2024-02-15T04:49:10;6.05;;;3.70;;
7338;SDS011;33747;49.524;8.390;2024-02-15T04:51:38;6.07;;;4.05;;
7338;SDS011;33747;49.524;8.390;2024-02-15T04:54:06;6.88;;;4.30;;
7338;SDS011;33747;49.524;8.390;2024-02-15T04:56:33;12.13;;;4.70;;
7338;SDS011;33747;49.524;8.390;2024-02-15T04:59:01;10.68;;;4.40;;
7338;SDS011;33747;49.524;8.390;2024-02-15T05:01:27;8.48;;;4.65;;
7338;SDS011;33747;49.524;8.390;2024-02-15T05:03:56;10.70;;;5.35;;
7338;SDS011;33747;49.524;8.390;2024-02-15T05:06:23;11.85;;;5.95;;
7338;SDS011;33747;49.524;8.390;2024-02-15T05:08:49;10.13;;;5.03;;
7338;SDS011;33747;49.524;8.390;2024-02-15T05:11:14;9.85;;;4.78;;
7338;SDS011;33747;49.524;8.390;2024-02-15T05:13:44;10.63;;;4.95;;
7338;SDS011;33747;49.524;8.390;2024-02-15T05:16:12;8.70;;;4.43;;
7338;SDS011;33747;49.524;8.390;2024-02-15T05:18:38;8.20;;;4.90;;
7338;SDS011;33747;49.524;8.390;2024-02-15T05:21:05;8.65;;;4.63;;
7338;SDS011;33747;49.524;8.390;2024-02-15T05:23:34;5.80;;;3.83;;
7338;SDS011;33747;49.524;8.390;2024-02-15T05:26:02;10.23;;;3.97;;
7338;SDS011;33747;49.524;8.390;2024-02-15T05:28:29;9.48;;;3.35;;
7338;SDS011;33747;49.524;8.390;2024-02-15T05:31:13;6.80;;;3.35;;
7338;SDS011;33747;49.524;8.390;2024-02-15T05:33:42;6.80;;;2.80;;
7338;SDS011;33747;49.524;8.390;2024-02-15T05:36:09;4.82;;;3.13;;
7338;SDS011;33747;49.524;8.390;2024-02-15T05:38:36;5.43;;;3.05;;
7338;SDS011;33747;49.524;8.390;2024-02-15T05:41:02;5.82;;;2.67;;
7338;SDS011;33747;49.524;8.390;2024-02-15T05:43:29;7.55;;;3.22;;
7338;SDS011;33747;49.524;8.390;2024-02-15T05:46:00;7.65;;;3.08;;
7338;SDS011;33747;49.524;8.390;2024-02-15T05:48:26;8.40;;;2.78;;
7338;SDS011;33747;49.524;8.390;2024-02-15T05:50:52;11.35;;;3.17;;
7338;SDS011;33747;49.524;8.390;2024-02-15T05:53:19;7.85;;;3.58;;
7338;SDS011;33747;49.524;8.390;2024-02-15T05:55:44;11.80;;;5.07;;
7338;SDS011;33747;49.524;8.390;2024-02-15T05:58:11;9.10;;;5.43;;
7338;SDS011;33747;49.524;8.390;2024-02-15T06:00:39;10.15;;;5.20;;
7338;SDS011;33747;49.524;8.390;2024-02-15T06:03:06;9.90;;;5.15;;
7338;SDS011;33747;49.524;8.390;2024-02-15T06:05:31;6.32;;;4.97;;
7338;SDS011;33747;49.524;8.390;2024-02-15T06:07:59;9.45;;;4.85;;
7338;SDS011;33747;49.524;8.390;2024-02-15T06:10:25;5.72;;;4.13;;
7338;SDS011;33747;49.524;8.390;2024-02-15T06:12:51;4.68;;;3.60;;
7338;SDS011;33747;49.524;8.390;2024-02-15T06:15:18;10.32;;;4.45;;
7338;SDS011;33747;49.524;8.390;2024-02-15T06:17:43;7.90;;;4.15;;
7338;SDS011;33747;49.524;8.390;2024-02-15T06:20:12;15.00;;;3.97;;
7338;SDS011;33747;49.524;8.390;2024-02-15T06:22:45;13.88;;;4.80;;
7338;SDS011;33747;49.524;8.390;2024-02-15T06:25:11;7.20;;;4.15;;
7338;SDS011;33747;49.524;8.390;2024-02-15T06:27:38;7.22;;;4.50;;
7338;SDS011;33747;49.524;8.390;2024-02-15T06:30:08;7.30;;;3.85;;
7338;SDS011;33747;49.524;8.390;2024-02-15T06:32:53;8.23;;;4.25;;
7338;SDS011;33747;49.524;8.390;2024-02-15T06:35:38;7.80;;;3.90;;
7338;SDS011;33747;49.524;8.390;2024-02-15T06:38:23;4.97;;;3.72;;
7338;SDS011;33747;49.524;8.390;2024-02-15T06:41:27;5.72;;;3.10;;
7338;SDS011;33747;49.524;8.390;2024-02-15T06:43:54;17.05;;;4.25;;
7338;SDS011;33747;49.524;8.390;2024-02-15T06:46:20;10.43;;;4.40;;
7338;SDS011;33747;49.524;8.390;2024-02-15T06:48:45;5.97;;;3.10;;
7338;SDS011;33747;49.524;8.390;2024-02-15T06:51:14;6.82;;;3.92;;
7338;SDS011;33747;49.524;8.390;2024-02-15T06:53:43;14.52;;;4.70;;
7338;SDS011;33747;49.524;8.390;2024-02-15T06:56:09;13.88;;;4.80;;
7338;SDS011;33747;49.524;8.390;2024-02-15T06:58:35;13.35;;;5.60;;
7338;SDS011;33747;49.524;8.390;2024-02-15T07:01:01;9.07;;;4.57;;
7338;SDS011;33747;49.524;8.390;2024-02-15T07:03:28;8.90;;;5.07;;
7338;SDS011;33747;49.524;8.390;2024-02-15T07:05:54;6.45;;;4.53;;
7338;SDS011;33747;49.524;8.390;2024-02-15T07:08:21;10.15;;;5.47;;
7338;SDS011;33747;49.524;8.390;2024-02-15T07:10:49;9.48;;;4.80;;
7338;SDS011;33747;49.524;8.390;2024-02-15T07:13:16;11.52;;;4.88;;
7338;SDS011;33747;49.524;8.390;2024-02-15T07:15:43;10.50;;;4.93;;
7338;SDS011;33747;49.524;8.390;2024-02-15T07:18:09;10.98;;;4.93;;
7338;SDS011;33747;49.524;8.390;2024-02-15T07:20:37;11.43;;;4.88;;
7338;SDS011;33747;49.524;8.390;2024-02-15T07:23:02;14.52;;;4.72;;
7338;SDS011;33747;49.524;8.390;2024-02-15T07:25:28;12.48;;;4.85;;
7338;SDS011;33747;49.524;8.390;2024-02-15T07:27:54;5.90;;;4.57;;
7338;SDS011;33747;49.524;8.390;2024-02-15T07:30:21;7.78;;;4.63;;
7338;SDS011;33747;49.524;8.390;2024-02-15T07:32:47;15.55;;;4.43;;
7338;SDS011;33747;49.524;8.390;2024-02-15T07:35:13;11.93;;;4.50;;
7338;SDS011;33747;49.524;8.390;2024-02-15T07:37:50;6.72;;;4.05;;
7338;SDS011;33747;49.524;8.390;2024-02-15T07:40:16;11.23;;;4.43;;
7338;SDS011;33747;49.524;8.390;2024-02-15T07:42:42;6.32;;;3.47;;
7338;SDS011;33747;49.524;8.390;2024-02-15T07:45:07;6.57;;;3.90;;
7338;SDS011;33747;49.524;8.390;2024-02-15T07:47:33;8.63;;;3.83;;
7338;SDS011;33747;49.524;8.390;2024-02-15T07:49:58;7.68;;;3.00;;
7338;SDS011;33747;49.524;8.390;2024-02-15T07:52:24;8.68;;;3.03;;
7338;SDS011;33747;49.524;8.390;2024-02-15T07:54:50;3.72;;;2.35;;
7338;SDS011;33747;49.524;8.390;2024-02-15T07:57:17;5.45;;;3.40;;
7338;SDS011;33747;49.524;8.390;2024-02-15T07:59:43;8.00;;;3.40;;
7338;SDS011;33747;49.524;8.390;2024-02-15T08:02:09;8.30;;;3.60;;
7338;SDS011;33747;49.524;8.390;2024-02-15T08:04:35;8.40;;;4.20;;
7338;SDS011;33747;49.524;8.390;2024-02-15T08:07:05;11.80;;;4.32;;
7338;SDS011;33747;49.524;8.390;2024-02-15T08:09:35;8.00;;;3.33;;
7338;SDS011;33747;49.524;8.390;2024-02-15T08:12:01;3.13;;;2.83;;
7338;SDS011;33747;49.524;8.390;2024-02-15T08:14:28;9.20;;;3.50;;
7338;SDS011;33747;49.524;8.390;2024-02-15T08:16:53;12.65;;;3.72;;
7338;SDS011;33747;49.524;8.390;2024-02-15T08:19:20;4.75;;;2.90;;
7338;SDS011;33747;49.524;8.390;2024-02-15T08:21:47;7.18;;;3.58;;
7338;SDS011;33747;49.524;8.390;2024-02-15T08:24:15;6.88;;;3.20;;
7338;SDS011;33747;49.524;8.390;2024-02-15T08:26:41;7.57;;;3.47;;
7338;SDS011;33747;49.524;8.390;2024-02-15T08:29:07;7.63;;;3.85;;
7338;SDS011;33747;49.524;8.390;2024-02-15T08:31:32;4.95;;;3.50;;
7338;SDS011;33747;49.524;8.390;2024-02-15T08:34:01;5.88;;;3.38;;
7338;SDS011;33747;49.524;8.390;2024-02-15T08:36:27;6.35;;;3.70;;
7338;SDS011;33747;49.524;8.390;2024-02-15T08:38:55;6.50;;;3.17;;
7338;SDS011;33747;49.524;8.390;2024-02-15T08:41:21;5.10;;;3.25;;
7338;SDS011;33747;49.524;8.390;2024-02-15T08:43:48;9.30;;;3.33;;
7338;SDS011;33747;49.524;8.390;2024-02-15T08:46:14;9.63;;;3.65;;
7338;SDS011;33747;49.524;8.390;2024-02-15T08:48:40;6.00;;;3.13;;
7338;SDS011;33747;49.524;8.390;2024-02-15T08:51:06;11.52;;;3.70;;
7338;SDS011;33747;49.524;8.390;2024-02-15T08:53:34;4.90;;;3.30;;
7338;SDS011;33747;49.524;8.390;2024-02-15T08:56:02;5.88;;;3.65;;
7338;SDS011;33747;49.524;8.390;2024-02-15T08:58:28;5.85;;;3.13;;
7338;SDS011;33747;49.524;8.390;2024-02-15T09:00:55;7.22;;;3.63;;
7338;SDS011;33747;49.524;8.390;2024-02-15T09:03:21;8.48;;;3.92;;
7338;SDS011;33747;49.524;8.390;2024-02-15T09:05:46;8.50;;;2.95;;
7338;SDS011;33747;49.524;8.390;2024-02-15T09:08:13;9.32;;;3.40;;
7338;SDS011;33747;49.524;8.390;2024-02-15T09:10:40;5.60;;;2.97;;
7338;SDS011;33747;49.524;8.390;2024-02-15T09:13:06;6.20;;;2.90;;
7338;SDS011;33747;49.524;8.390;2024-02-15T09:15:31;6.13;;;3.10;;
7338;SDS011;33747;49.524;8.390;2024-02-15T09:17:57;7.95;;;3.53;;
7338;SDS011;33747;49.524;8.390;2024-02-15T09:20:23;4.07;;;2.92;;
7338;SDS011;33747;49.524;8.390;2024-02-15T09:22:53;6.18;;;2.90;;
7338;SDS011;33747;49.524;8.390;2024-02-15T09:25:19;5.88;;;2.85;;
7338;SDS011;33747;49.524;8.390;2024-02-15T09:27:45;7.03;;;3.47;;
7338;SDS011;33747;49.524;8.390;2024-02-15T09:30:11;8.13;;;2.55;;
7338;SDS011;33747;49.524;8.390;2024-02-15T09:32:37;5.90;;;3.10;;
7338;SDS011;33747;49.524;8.390;2024-02-15T09:35:05;6.60;;;2.90;;
7338;SDS011;33747;49.524;8.390;2024-02-15T09:37:33;6.03;;;2.67;;
7338;SDS011;33747;49.524;8.390;2024-02-15T09:40:08;5.13;;;2.67;;
7338;SDS011;33747;49.524;8.390;2024-02-15T09:42:35;8.00;;;2.50;;
7338;SDS011;33747;49.524;8.390;2024-02-15T09:45:01;5.85;;;2.70;;
7338;SDS011;33747;49.524;8.390;2024-02-15T09:47:29;6.43;;;3.58;;
7338;SDS011;33747;49.524;8.390;2024-02-15T09:50:10;5.68;;;3.25;;
7338;SDS011;33747;49.524;8.390;2024-02-15T09:52:39;7.93;;;2.55;;
7338;SDS011;33747;49.524;8.390;2024-02-15T09:55:06;4.82;;;2.90;;
7338;SDS011;33747;49.524;8.390;2024-02-15T09:57:37;6.18;;;3.20;;
7338;SDS011;33747;49.524;8.390;2024-02-15T10:00:04;8.75;;;3.88;;
7338;SDS011;33747;49.524;8.390;2024-02-15T10:02:38;10.45;;;4.70;;
7338;SDS011;33747;49.524;8.390;2024-02-15T10:05:05;4.93;;;2.95;;
7338;SDS011;33747;49.524;8.390;2024-02-15T10:07:30;6.13;;;2.85;;
7338;SDS011;33747;49.524;8.390;2024-02-15T10:09:56;9.70;;;3.47;;
7338;SDS011;33747;49.524;8.390;2024-02-15T10:12:22;5.00;;;4.10;;
7338;SDS011;33747;49.524;8.390;2024-02-15T10:14:48;8.82;;;4.22;;
7338;SDS011;33747;49.524;8.390;2024-02-15T10:17:20;6.97;;;3.75;;
7338;SDS011;33747;49.524;8.390;2024-02-15T10:20:02;6.63;;;3.58;;
7338;SDS011;33747;49.524;8.390;2024-02-15T10:22:28;8.15;;;3.08;;
7338;SDS011;33747;49.524;8.390;2024-02-15T10:24:59;7.47;;;2.95;;
7338;SDS011;33747;49.524;8.390;2024-02-15T10:27:35;6.90;;;2.60;;
7338;SDS011;33747;49.524;8.390;2024-02-15T10:30:13;7.70;;;3.22;;
7338;SDS011;33747;49.524;8.390;2024-02-15T10:32:40;11.30;;;3.67;;
7338;SDS011;33747;49.524;8.390;2024-02-15T10:35:06;13.23;;;3.45;;
7338;SDS011;33747;49.524;8.390;2024-02-15T10:37:32;4.63;;;3.35;;
7338;SDS011;33747;49.524;8.390;2024-02-15T10:40:04;5.75;;;3.40;;
7338;SDS011;33747;49.524;8.390;2024-02-15T10:42:32;4.63;;;3.15;;
7338;SDS011;33747;49.524;8.390;2024-02-15T10:45:01;8.98;;;3.05;;
7338;SDS011;33747;49.524;8.390;2024-02-15T10:47:31;8.60;;;3.53;;
7338;SDS011;33747;49.524;8.390;2024-02-15T10:49:57;7.13;;;3.00;;
7338;SDS011;33747;49.524;8.390;2024-02-15T10:52:23;10.02;;;3.30;;
7338;SDS011;33747;49.524;8.390;2024-02-15T10:54:53;7.75;;;2.95;;
7338;SDS011;33747;49.524;8.390;2024-02-15T10:57:28;5.05;;;2.60;;
7338;SDS011;33747;49.524;8.390;2024-02-15T10:59:58;8.90;;;2.92;;
7338;SDS011;33747;49.524;8.390;2024-02-15T11:02:40;6.63;;;2.90;;
7338;SDS011;33747;49.524;8.390;2024-02-15T11:05:08;9.90;;;2.95;;
7338;SDS011;33747;49.524;8.390;2024-02-15T11:07:36;6.10;;;2.88;;
7338;SDS011;33747;49.524;8.390;2024-02-15T11:10:03;7.15;;;2.80;;
7338;SDS011;33747;49.524;8.390;2024-02-15T11:12:33;8.23;;;3.10;;
7338;SDS011;33747;49.524;8.390;2024-02-15T11:14:58;4.82;;;2.83;;
7338;SDS011;33747;49.524;8.390;2024-02-15T11:20:02;9.15;;;3.45;;
7338;SDS011;33747;49.524;8.390;2024-02-15T11:22:33;6.22;;;3.35;;
7338;SDS011;33747;49.524;8.390;2024-02-15T11:24:58;8.80;;;2.78;;
7338;SDS011;33747;49.524;8.390;2024-02-15T11:27:28;11.15;;;3.17;;
7338;SDS011;33747;49.524;8.390;2024-02-15T11:30:00;8.38;;;3.20;;
7338;SDS011;33747;49.524;8.390;2024-02-15T11:35:08;5.30;;;2.67;;
7338;SDS011;33747;49.524;8.390;2024-02-15T11:42:47;8.05;;;2.13;;
7338;SDS011;33747;49.524;8.390;2024-02-15T11:45:14;2.88;;;2.10;;
7338;SDS011;33747;49.524;8.390;2024-02-15T11:47:43;5.05;;;2.33;;
7338;SDS011;33747;49.524;8.390;2024-02-15T11:50:13;7.75;;;2.40;;
7338;SDS011;33747;49.524;8.390;2024-02-15T11:52:49;5.32;;;2.20;;
7338;SDS011;33747;49.524;8.390;2024-02-15T11:55:18;6.45;;;2.45;;
7338;SDS011;33747;49.524;8.390;2024-02-15T11:57:59;5.22;;;2.60;;
7338;SDS011;33747;49.524;8.390;2024-02-15T12:00:51;3.45;;;2.03;;
7338;SDS011;33747;49.524;8.390;2024-02-15T12:03:44;6.57;;;1.92;;
7338;SDS011;33747;49.524;8.390;2024-02-15T12:06:28;6.00;;;2.13;;
7338;SDS011;33747;49.524;8.390;2024-02-15T12:09:12;5.82;;;1.70;;
7338;SDS011;33747;49.524;8.390;2024-02-15T12:12:02;5.60;;;1.60;;
7338;SDS011;33747;49.524;8.390;2024-02-15T12:14:46;6.13;;;1.90;;
7338;SDS011;33747;49.524;8.390;2024-02-15T12:17:30;4.28;;;1.65;;
7338;SDS011;33747;49.524;8.390;2024-02-15T12:20:14;4.20;;;1.88;;
7338;SDS011;33747;49.524;8.390;2024-02-15T12:22:45;4.13;;;1.70;;
7338;SDS011;33747;49.524;8.390;2024-02-15T12:25:16;4.05;;;1.50;;
7338;SDS011;33747;49.524;8.390;2024-02-15T12:27:42;6.28;;;2.00;;
7338;SDS011;33747;49.524;8.390;2024-02-15T12:30:18;3.22;;;1.75;;
7338;SDS011;33747;49.524;8.390;2024-02-15T12:32:48;3.92;;;1.80;;
7338;SDS011;33747;49.524;8.390;2024-02-15T12:35:17;4.65;;;1.83;;
7338;SDS011;33747;49.524;8.390;2024-02-15T12:40:29;7.50;;;1.85;;
7338;SDS011;33747;49.524;8.390;2024-02-15T12:42:55;6.00;;;1.70;;
7338;SDS011;33747;49.524;8.390;2024-02-15T12:45:20;4.00;;;1.48;;
7338;SDS011;33747;49.524;8.390;2024-02-15T12:47:50;4.25;;;1.73;;
7338;SDS011;33747;49.524;8.390;2024-02-15T12:50:16;7.00;;;2.15;;
7338;SDS011;33747;49.524;8.390;2024-02-15T12:52:44;4.35;;;1.77;;
7338;SDS011;33747;49.524;8.390;2024-02-15T12:55:22;6.15;;;1.65;;
7338;SDS011;33747;49.524;8.390;2024-02-15T12:57:53;7.40;;;1.60;;
7338;SDS011;33747;49.524;8.390;2024-02-15T13:00:21;5.43;;;1.60;;
7338;SDS011;33747;49.524;8.390;2024-02-15T13:02:48;5.47;;;1.80;;
7338;SDS011;33747;49.524;8.390;2024-02-15T13:05:17;5.18;;;2.13;;
7338;SDS011;33747;49.524;8.390;2024-02-15T13:07:43;3.40;;;1.80;;
7338;SDS011;33747;49.524;8.390;2024-02-15T13:10:09;3.88;;;1.92;;
7338;SDS011;33747;49.524;8.390;2024-02-15T13:12:35;4.55;;;2.40;;
7338;SDS011;33747;49.524;8.390;2024-02-15T13:15:02;8.38;;;2.03;;
7338;SDS011;33747;49.524;8.390;2024-02-15T13:17:29;10.30;;;1.60;;
7338;SDS011;33747;49.524;8.390;2024-02-15T13:19:54;6.38;;;2.15;;
7338;SDS011;33747;49.524;8.390;2024-02-15T13:22:27;4.35;;;1.80;;
7338;SDS011;33747;49.524;8.390;2024-02-15T13:24:53;9.50;;;1.88;;
7338;SDS011;33747;49.524;8.390;2024-02-15T13:27:20;3.25;;;1.85;;
7338;SDS011;33747;49.524;8.390;2024-02-15T13:29:46;3.08;;;1.70;;
7338;SDS011;33747;49.524;8.390;2024-02-15T13:32:12;5.95;;;1.80;;
7338;SDS011;33747;49.524;8.390;2024-02-15T13:34:39;3.03;;;1.73;;
7338;SDS011;33747;49.524;8.390;2024-02-15T13:37:05;8.20;;;1.70;;
7338;SDS011;33747;49.524;8.390;2024-02-15T13:39:30;3.42;;;1.92;;
7338;SDS011;33747;49.524;8.390;2024-02-15T13:41:59;6.13;;;1.65;;
7338;SDS011;33747;49.524;8.390;2024-02-15T13:44:27;3.75;;;1.77;;
7338;SDS011;33747;49.524;8.390;2024-02-15T13:46:52;5.15;;;1.75;;
7338;SDS011;33747;49.524;8.390;2024-02-15T13:49:20;7.10;;;2.05;;
7338;SDS011;33747;49.524;8.390;2024-02-15T13:51:46;6.68;;;2.05;;
7338;SDS011;33747;49.524;8.390;2024-02-15T13:54:17;8.30;;;1.85;;
7338;SDS011;33747;49.524;8.390;2024-02-15T13:56:43;6.25;;;2.15;;
7338;SDS011;33747;49.524;8.390;2024-02-15T13:59:09;6.72;;;1.65;;
7338;SDS011;33747;49.524;8.390;2024-02-15T14:01:34;5.45;;;2.10;;
7338;SDS011;33747;49.524;8.390;2024-02-15T14:03:59;2.42;;;1.90;;
7338;SDS011;33747;49.524;8.390;2024-02-15T14:06:25;3.67;;;1.65;;
7338;SDS011;33747;49.524;8.390;2024-02-15T14:08:51;4.50;;;2.10;;
7338;SDS011;33747;49.524;8.390;2024-02-15T14:11:16;21.67;;;2.10;;
7338;SDS011;33747;49.524;8.390;2024-02-15T14:13:42;4.95;;;1.60;;
7338;SDS011;33747;49.524;8.390;2024-02-15T14:16:08;4.38;;;1.98;;
7338;SDS011;33747;49.524;8.390;2024-02-15T14:18:33;4.82;;;1.80;;
7338;SDS011;33747;49.524;8.390;2024-02-15T14:20:59;2.53;;;1.90;;
7338;SDS011;33747;49.524;8.390;2024-02-15T14:23:25;10.93;;;1.70;;
7338;SDS011;33747;49.524;8.390;2024-02-15T14:25:52;5.75;;;2.10;;
7338;SDS011;33747;49.524;8.390;2024-02-15T14:28:18;4.55;;;1.92;;
7338;SDS011;33747;49.524;8.390;2024-02-15T14:30:43;5.60;;;1.80;;
7338;SDS011;33747;49.524;8.390;2024-02-15T14:33:27;6.00;;;2.20;;
7338;SDS011;33747;49.524;8.390;2024-02-15T14:35:53;2.83;;;1.77;;
7338;SDS011;33747;49.524;8.390;2024-02-15T14:38:18;5.28;;;1.73;;
7338;SDS011;33747;49.524;8.390;2024-02-15T14:40:47;4.40;;;2.15;;
7338;SDS011;33747;49.524;8.390;2024-02-15T14:43:21;5.55;;;1.95;;
7338;SDS011;33747;49.524;8.390;2024-02-15T14:45:46;6.03;;;2.20;;
7338;SDS011;33747;49.524;8.390;2024-02-15T14:48:13;5.15;;;1.98;;
7338;SDS011;33747;49.524;8.390;2024-02-15T14:50:41;7.20;;;1.85;;
7338;SDS011;33747;49.524;8.390;2024-02-15T14:53:07;4.75;;;1.70;;
7338;SDS011;33747;49.524;8.390;2024-02-15T14:55:36;3.97;;;1.63;;
7338;SDS011;33747;49.524;8.390;2024-02-15T14:58:07;5.55;;;1.85;;
7338;SDS011;33747;49.524;8.390;2024-02-15T15:00:33;4.97;;;1.42;;
7338;SDS011;33747;49.524;8.390;2024-02-15T15:02:59;1.75;;;1.40;;
7338;SDS011;33747;49.524;8.390;2024-02-15T15:05:24;1.85;;;1.38;;
7338;SDS011;33747;49.524;8.390;2024-02-15T15:08:08;3.83;;;1.77;;
7338;SDS011;33747;49.524;8.390;2024-02-15T15:10:52;4.50;;;1.20;;
7338;SDS011;33747;49.524;8.390;2024-02-15T15:13:36;4.97;;;1.58;;
7338;SDS011;33747;49.524;8.390;2024-02-15T15:16:02;2.03;;;1.30;;
7338;SDS011;33747;49.524;8.390;2024-02-15T15:18:28;3.10;;;1.13;;
7338;SDS011;33747;49.524;8.390;2024-02-15T15:20:55;3.58;;;1.33;;